sensor_id;sensor_type;location;lat;lon;timestamp;temperature;humidity
25128;DHT22;13107;51.304;6.866;2023-06-14T00:03:49;17.00;99.90
25128;DHT22;13107;51.304;6.866;2023-06-14T00:07:51;17.00;99.90
25128;DHT22;13107;51.304;6.866;2023-06-14T00:11:55;16.90;99.90
25128;DHT22;13107;51.304;6.866;2023-06-14T00:15:56;16.80;99.90
25128;DHT22;13107;51.304;6.866;2023-06-14T00:19:59;16.70;99.90
25128;DHT22;13107;51.304;6.866;2023-06-14T00:24:00;16.50;99.90
25128;DHT22;13107;51.304;6.866;2023-06-14T00:28:02;16.20;99.90
25128;DHT22;13107;51.304;6.866;2023-06-14T00:32:05;15.90;99.90
25128;DHT22;13107;51.304;6.866;2023-06-14T00:36:06;15.80;99.90
25128;DHT22;13107;51.304;6.866;2023-06-14T00:40:08;15.60;99.90
25128;DHT22;13107;51.304;6.866;2023-06-14T00:44:11;15.40;99.90
25128;DHT22;13107;51.304;6.866;2023-06-14T00:48:13;15.10;99.90
25128;DHT22;13107;51.304;6.866;2023-06-14T00:52:16;15.00;99.90
25128;DHT22;13107;51.304;6.866;2023-06-14T00:56:17;14.80;99.90
25128;DHT22;13107;51.304;6.866;2023-06-14T01:00:22;14.70;99.90
25128;DHT22;13107;51.304;6.866;2023-06-14T01:04:24;14.60;99.90
25128;DHT22;13107;51.304;6.866;2023-06-14T01:08:47;14.30;99.90
25128;DHT22;13107;51.304;6.866;2023-06-14T01:13:02;14.30;99.90
25128;DHT22;13107;51.304;6.866;2023-06-14T01:17:08;14.00;99.90
25128;DHT22;13107;51.304;6.866;2023-06-14T01:21:25;13.90;99.90
25128;DHT22;13107;51.304;6.866;2023-06-14T01:25:27;13.70;99.90
25128;DHT22;13107;51.304;6.866;2023-06-14T01:29:29;13.70;99.90
25128;DHT22;13107;51.304;6.866;2023-06-14T01:33:35;13.60;99.90
25128;DHT22;13107;51.304;6.866;2023-06-14T01:37:37;13.50;99.90
25128;DHT22;13107;51.304;6.866;2023-06-14T01:41:40;13.50;99.90
25128;DHT22;13107;51.304;6.866;2023-06-14T01:45:43;13.40;99.90
25128;DHT22;13107;51.304;6.866;2023-06-14T01:49:46;13.40;99.90
25128;DHT22;13107;51.304;6.866;2023-06-14T01:53:48;13.40;99.90
25128;DHT22;13107;51.304;6.866;2023-06-14T01:57:53;13.40;99.90
25128;DHT22;13107;51.304;6.866;2023-06-14T02:01:55;13.50;99.90
25128;DHT22;13107;51.304;6.866;2023-06-14T02:05:57;13.40;99.90
25128;DHT22;13107;51.304;6.866;2023-06-14T02:09:59;13.50;99.90
25128;DHT22;13107;51.304;6.866;2023-06-14T02:14:01;13.40;99.90
25128;DHT22;13107;51.304;6.866;2023-06-14T02:18:03;13.30;99.90
25128;DHT22;13107;51.304;6.866;2023-06-14T02:22:06;13.20;99.90
25128;DHT22;13107;51.304;6.866;2023-06-14T02:26:08;13.10;99.90
25128;DHT22;13107;51.304;6.866;2023-06-14T02:30:10;13.10;99.90
25128;DHT22;13107;51.304;6.866;2023-06-14T02:34:12;12.90;99.90
25128;DHT22;13107;51.304;6.866;2023-06-14T02:38:14;12.90;99.90
25128;DHT22;13107;51.304;6.866;2023-06-14T02:42:16;12.90;99.90
25128;DHT22;13107;51.304;6.866;2023-06-14T02:46:18;12.70;99.90
25128;DHT22;13107;51.304;6.866;2023-06-14T02:50:19;12.70;99.90
25128;DHT22;13107;51.304;6.866;2023-06-14T02:54:23;12.60;99.90
25128;DHT22;13107;51.304;6.866;2023-06-14T02:58:24;12.50;99.90
25128;DHT22;13107;51.304;6.866;2023-06-14T03:02:26;12.50;99.90
25128;DHT22;13107;51.304;6.866;2023-06-14T03:06:28;12.50;99.90
25128;DHT22;13107;51.304;6.866;2023-06-14T03:10:31;12.50;99.90
25128;DHT22;13107;51.304;6.866;2023-06-14T03:14:34;12.40;99.90
25128;DHT22;13107;51.304;6.866;2023-06-14T03:18:37;12.40;99.90
25128;DHT22;13107;51.304;6.866;2023-06-14T03:22:38;12.30;99.90
25128;DHT22;13107;51.304;6.866;2023-06-14T03:26:40;12.30;99.90
25128;DHT22;13107;51.304;6.866;2023-06-14T03:30:42;12.30;99.90
25128;DHT22;13107;51.304;6.866;2023-06-14T03:34:44;12.30;99.90
25128;DHT22;13107;51.304;6.866;2023-06-14T03:38:46;12.20;99.90
25128;DHT22;13107;51.304;6.866;2023-06-14T03:42:48;12.20;99.90
25128;DHT22;13107;51.304;6.866;2023-06-14T03:46:50;12.10;99.90
25128;DHT22;13107;51.304;6.866;2023-06-14T03:50:52;12.10;99.90
25128;DHT22;13107;51.304;6.866;2023-06-14T03:54:54;12.10;99.90
25128;DHT22;13107;51.304;6.866;2023-06-14T03:58:58;12.00;99.90
25128;DHT22;13107;51.304;6.866;2023-06-14T04:03:00;12.10;99.90
25128;DHT22;13107;51.304;6.866;2023-06-14T04:07:02;12.20;99.90
25128;DHT22;13107;51.304;6.866;2023-06-14T04:11:04;12.30;99.90
25128;DHT22;13107;51.304;6.866;2023-06-14T04:15:07;12.40;99.90
25128;DHT22;13107;51.304;6.866;2023-06-14T04:19:22;12.70;99.90
25128;DHT22;13107;51.304;6.866;2023-06-14T04:23:23;13.10;99.90
25128;DHT22;13107;51.304;6.866;2023-06-14T04:27:28;13.50;99.90
25128;DHT22;13107;51.304;6.866;2023-06-14T04:31:32;14.00;99.90
25128;DHT22;13107;51.304;6.866;2023-06-14T04:35:39;14.40;99.90
25128;DHT22;13107;51.304;6.866;2023-06-14T04:39:42;14.90;99.90
25128;DHT22;13107;51.304;6.866;2023-06-14T04:43:44;15.20;99.90
25128;DHT22;13107;51.304;6.866;2023-06-14T04:47:49;15.50;99.90
25128;DHT22;13107;51.304;6.866;2023-06-14T04:51:53;15.70;99.90
25128;DHT22;13107;51.304;6.866;2023-06-14T04:55:58;15.90;99.90
25128;DHT22;13107;51.304;6.866;2023-06-14T05:00:02;16.10;99.90
25128;DHT22;13107;51.304;6.866;2023-06-14T05:04:05;16.30;99.90
25128;DHT22;13107;51.304;6.866;2023-06-14T05:08:07;16.60;99.90
25128;DHT22;13107;51.304;6.866;2023-06-14T05:12:10;16.80;99.90
25128;DHT22;13107;51.304;6.866;2023-06-14T05:16:12;17.00;99.90
25128;DHT22;13107;51.304;6.866;2023-06-14T05:20:14;17.20;99.90
25128;DHT22;13107;51.304;6.866;2023-06-14T05:24:16;17.70;99.90
25128;DHT22;13107;51.304;6.866;2023-06-14T05:28:22;17.90;99.90
25128;DHT22;13107;51.304;6.866;2023-06-14T05:32:23;18.10;99.90
25128;DHT22;13107;51.304;6.866;2023-06-14T05:36:25;18.60;99.90
25128;DHT22;13107;51.304;6.866;2023-06-14T05:40:29;18.60;99.90
25128;DHT22;13107;51.304;6.866;2023-06-14T05:44:31;18.60;99.90
25128;DHT22;13107;51.304;6.866;2023-06-14T05:48:33;18.50;99.90
25128;DHT22;13107;51.304;6.866;2023-06-14T05:52:34;18.60;99.90
25128;DHT22;13107;51.304;6.866;2023-06-14T05:56:38;18.70;99.90
25128;DHT22;13107;51.304;6.866;2023-06-14T06:00:39;18.80;99.90
25128;DHT22;13107;51.304;6.866;2023-06-14T06:04:41;18.90;99.90
25128;DHT22;13107;51.304;6.866;2023-06-14T06:08:43;19.10;99.90
25128;DHT22;13107;51.304;6.866;2023-06-14T06:12:45;19.30;99.90
25128;DHT22;13107;51.304;6.866;2023-06-14T06:16:49;19.50;99.90
25128;DHT22;13107;51.304;6.866;2023-06-14T06:20:50;19.80;99.90
25128;DHT22;13107;51.304;6.866;2023-06-14T06:24:52;20.00;99.90
25128;DHT22;13107;51.304;6.866;2023-06-14T06:28:54;20.10;99.90
25128;DHT22;13107;51.304;6.866;2023-06-14T06:32:57;20.30;99.90
25128;DHT22;13107;51.304;6.866;2023-06-14T06:36:59;20.40;98.80
25128;DHT22;13107;51.304;6.866;2023-06-14T06:41:00;20.40;97.10
25128;DHT22;13107;51.304;6.866;2023-06-14T06:45:03;20.60;96.80
25128;DHT22;13107;51.304;6.866;2023-06-14T06:49:05;20.60;95.60
25128;DHT22;13107;51.304;6.866;2023-06-14T06:53:07;20.70;93.70
25128;DHT22;13107;51.304;6.866;2023-06-14T06:57:09;20.80;93.90
25128;DHT22;13107;51.304;6.866;2023-06-14T07:01:12;20.90;96.00
25128;DHT22;13107;51.304;6.866;2023-06-14T07:05:14;20.90;95.80
25128;DHT22;13107;51.304;6.866;2023-06-14T07:09:17;21.10;94.20
25128;DHT22;13107;51.304;6.866;2023-06-14T07:13:19;21.10;94.00
25128;DHT22;13107;51.304;6.866;2023-06-14T07:17:21;21.10;93.30
25128;DHT22;13107;51.304;6.866;2023-06-14T07:21:22;21.20;91.60
25128;DHT22;13107;51.304;6.866;2023-06-14T07:25:24;21.10;90.50
25128;DHT22;13107;51.304;6.866;2023-06-14T07:29:26;21.10;90.50
25128;DHT22;13107;51.304;6.866;2023-06-14T07:33:28;21.30;89.90
25128;DHT22;13107;51.304;6.866;2023-06-14T07:37:30;21.40;89.60
25128;DHT22;13107;51.304;6.866;2023-06-14T07:41:33;21.40;87.40
25128;DHT22;13107;51.304;6.866;2023-06-14T07:45:35;21.40;87.00
25128;DHT22;13107;51.304;6.866;2023-06-14T07:49:37;21.70;89.40
25128;DHT22;13107;51.304;6.866;2023-06-14T07:53:39;21.40;89.00
25128;DHT22;13107;51.304;6.866;2023-06-14T07:57:42;21.80;88.90
25128;DHT22;13107;51.304;6.866;2023-06-14T08:01:45;21.60;83.00
25128;DHT22;13107;51.304;6.866;2023-06-14T08:05:49;21.90;82.40
25128;DHT22;13107;51.304;6.866;2023-06-14T08:09:51;22.00;83.50
25128;DHT22;13107;51.304;6.866;2023-06-14T08:13:53;22.40;83.40
25128;DHT22;13107;51.304;6.866;2023-06-14T08:17:55;22.30;83.50
25128;DHT22;13107;51.304;6.866;2023-06-14T08:21:57;22.70;82.90
25128;DHT22;13107;51.304;6.866;2023-06-14T08:25:59;22.80;81.60
25128;DHT22;13107;51.304;6.866;2023-06-14T08:30:03;23.20;82.20
25128;DHT22;13107;51.304;6.866;2023-06-14T08:34:05;23.70;81.60
25128;DHT22;13107;51.304;6.866;2023-06-14T08:38:08;23.40;79.00
25128;DHT22;13107;51.304;6.866;2023-06-14T08:42:14;23.20;81.80
25128;DHT22;13107;51.304;6.866;2023-06-14T08:46:32;23.00;82.80
25128;DHT22;13107;51.304;6.866;2023-06-14T08:50:36;23.30;81.10
25128;DHT22;13107;51.304;6.866;2023-06-14T08:54:41;23.60;79.40
25128;DHT22;13107;51.304;6.866;2023-06-14T08:58:46;23.70;78.40
25128;DHT22;13107;51.304;6.866;2023-06-14T09:02:50;24.30;79.40
25128;DHT22;13107;51.304;6.866;2023-06-14T09:06:54;23.90;74.70
25128;DHT22;13107;51.304;6.866;2023-06-14T09:10:57;23.70;78.10
25128;DHT22;13107;51.304;6.866;2023-06-14T09:14:58;23.80;76.20
25128;DHT22;13107;51.304;6.866;2023-06-14T09:19:01;24.30;76.80
25128;DHT22;13107;51.304;6.866;2023-06-14T09:23:04;24.10;73.50
25128;DHT22;13107;51.304;6.866;2023-06-14T09:27:07;23.90;71.90
25128;DHT22;13107;51.304;6.866;2023-06-14T09:31:17;23.20;73.30
25128;DHT22;13107;51.304;6.866;2023-06-14T09:35:20;23.60;74.80
25128;DHT22;13107;51.304;6.866;2023-06-14T09:39:22;24.10;72.00
25128;DHT22;13107;51.304;6.866;2023-06-14T09:43:24;24.30;72.80
25128;DHT22;13107;51.304;6.866;2023-06-14T09:47:27;23.50;70.80
25128;DHT22;13107;51.304;6.866;2023-06-14T09:51:29;24.30;70.80
25128;DHT22;13107;51.304;6.866;2023-06-14T09:55:36;24.40;71.10
25128;DHT22;13107;51.304;6.866;2023-06-14T09:59:44;24.80;71.20
25128;DHT22;13107;51.304;6.866;2023-06-14T10:03:47;25.60;69.40
25128;DHT22;13107;51.304;6.866;2023-06-14T10:08:04;25.90;67.30
25128;DHT22;13107;51.304;6.866;2023-06-14T10:12:07;25.60;65.80
25128;DHT22;13107;51.304;6.866;2023-06-14T10:16:27;25.20;70.00
25128;DHT22;13107;51.304;6.866;2023-06-14T10:20:35;25.50;68.50
25128;DHT22;13107;51.304;6.866;2023-06-14T10:24:44;26.10;67.30
25128;DHT22;13107;51.304;6.866;2023-06-14T10:33:07;24.40;66.30
25128;DHT22;13107;51.304;6.866;2023-06-14T10:37:13;24.10;67.10
25128;DHT22;13107;51.304;6.866;2023-06-14T10:41:16;24.20;68.80
25128;DHT22;13107;51.304;6.866;2023-06-14T10:45:18;24.80;68.20
25128;DHT22;13107;51.304;6.866;2023-06-14T10:49:43;25.10;64.50
25128;DHT22;13107;51.304;6.866;2023-06-14T10:53:50;24.50;65.60
25128;DHT22;13107;51.304;6.866;2023-06-14T10:57:53;25.70;66.40
25128;DHT22;13107;51.304;6.866;2023-06-14T11:06:48;25.60;63.60
25128;DHT22;13107;51.304;6.866;2023-06-14T11:10:51;25.90;63.70
25128;DHT22;13107;51.304;6.866;2023-06-14T11:14:55;25.50;67.20
25128;DHT22;13107;51.304;6.866;2023-06-14T11:18:57;25.60;66.00
25128;DHT22;13107;51.304;6.866;2023-06-14T11:22:59;25.60;65.30
25128;DHT22;13107;51.304;6.866;2023-06-14T11:27:01;26.10;65.30
25128;DHT22;13107;51.304;6.866;2023-06-14T11:31:04;26.00;67.40
25128;DHT22;13107;51.304;6.866;2023-06-14T11:35:07;26.00;64.40
25128;DHT22;13107;51.304;6.866;2023-06-14T11:39:09;26.30;63.00
25128;DHT22;13107;51.304;6.866;2023-06-14T11:43:11;26.10;65.10
25128;DHT22;13107;51.304;6.866;2023-06-14T11:47:15;25.90;66.30
25128;DHT22;13107;51.304;6.866;2023-06-14T11:51:16;25.70;65.10
25128;DHT22;13107;51.304;6.866;2023-06-14T11:55:20;25.80;63.10
25128;DHT22;13107;51.304;6.866;2023-06-14T11:59:22;26.20;64.70
25128;DHT22;13107;51.304;6.866;2023-06-14T12:03:24;26.40;65.90
25128;DHT22;13107;51.304;6.866;2023-06-14T12:07:27;26.90;61.80
25128;DHT22;13107;51.304;6.866;2023-06-14T12:11:35;27.00;60.30
25128;DHT22;13107;51.304;6.866;2023-06-14T12:15:37;27.30;61.60
25128;DHT22;13107;51.304;6.866;2023-06-14T12:19:42;27.70;61.40
25128;DHT22;13107;51.304;6.866;2023-06-14T12:23:46;27.60;60.70
25128;DHT22;13107;51.304;6.866;2023-06-14T12:27:48;27.80;58.40
25128;DHT22;13107;51.304;6.866;2023-06-14T12:31:50;28.00;60.20
25128;DHT22;13107;51.304;6.866;2023-06-14T12:35:55;28.40;59.80
25128;DHT22;13107;51.304;6.866;2023-06-14T12:39:58;28.50;60.40
25128;DHT22;13107;51.304;6.866;2023-06-14T12:44:01;29.00;59.60
25128;DHT22;13107;51.304;6.866;2023-06-14T12:48:05;28.00;57.80
25128;DHT22;13107;51.304;6.866;2023-06-14T12:52:07;26.90;59.60
25128;DHT22;13107;51.304;6.866;2023-06-14T12:56:09;27.40;60.90
25128;DHT22;13107;51.304;6.866;2023-06-14T13:00:11;27.80;61.00
25128;DHT22;13107;51.304;6.866;2023-06-14T13:04:15;27.80;59.90
25128;DHT22;13107;51.304;6.866;2023-06-14T13:08:17;28.80;61.20
25128;DHT22;13107;51.304;6.866;2023-06-14T13:12:18;29.00;57.90
25128;DHT22;13107;51.304;6.866;2023-06-14T13:16:21;28.90;59.20
25128;DHT22;13107;51.304;6.866;2023-06-14T13:20:23;28.30;59.20
25128;DHT22;13107;51.304;6.866;2023-06-14T13:24:25;28.40;59.40
25128;DHT22;13107;51.304;6.866;2023-06-14T13:28:27;27.90;58.80
25128;DHT22;13107;51.304;6.866;2023-06-14T13:32:29;27.20;59.60
25128;DHT22;13107;51.304;6.866;2023-06-14T13:36:31;27.90;60.30
25128;DHT22;13107;51.304;6.866;2023-06-14T13:40:33;27.60;60.30
25128;DHT22;13107;51.304;6.866;2023-06-14T13:44:34;27.30;59.50
25128;DHT22;13107;51.304;6.866;2023-06-14T13:48:36;27.40;61.30
25128;DHT22;13107;51.304;6.866;2023-06-14T13:52:38;27.00;60.30
25128;DHT22;13107;51.304;6.866;2023-06-14T13:56:40;26.90;62.20
25128;DHT22;13107;51.304;6.866;2023-06-14T14:00:41;26.70;60.50
25128;DHT22;13107;51.304;6.866;2023-06-14T14:04:44;26.50;60.70
25128;DHT22;13107;51.304;6.866;2023-06-14T14:08:46;26.60;61.70
25128;DHT22;13107;51.304;6.866;2023-06-14T14:12:47;26.80;61.20
25128;DHT22;13107;51.304;6.866;2023-06-14T14:16:50;27.50;60.70
25128;DHT22;13107;51.304;6.866;2023-06-14T14:20:56;27.80;58.50
25128;DHT22;13107;51.304;6.866;2023-06-14T14:24:58;28.70;56.40
25128;DHT22;13107;51.304;6.866;2023-06-14T14:28:59;28.80;56.70
25128;DHT22;13107;51.304;6.866;2023-06-14T14:33:01;27.80;58.50
25128;DHT22;13107;51.304;6.866;2023-06-14T14:37:03;27.80;58.90
25128;DHT22;13107;51.304;6.866;2023-06-14T14:41:05;28.50;57.60
25128;DHT22;13107;51.304;6.866;2023-06-14T14:45:07;27.80;58.20
25128;DHT22;13107;51.304;6.866;2023-06-14T14:49:09;28.30;56.80
25128;DHT22;13107;51.304;6.866;2023-06-14T14:53:11;27.10;58.10
25128;DHT22;13107;51.304;6.866;2023-06-14T14:57:13;27.20;59.00
25128;DHT22;13107;51.304;6.866;2023-06-14T15:01:14;27.10;58.90
25128;DHT22;13107;51.304;6.866;2023-06-14T15:05:17;27.30;58.60
25128;DHT22;13107;51.304;6.866;2023-06-14T15:09:19;27.50;59.60
25128;DHT22;13107;51.304;6.866;2023-06-14T15:13:21;27.60;58.60
25128;DHT22;13107;51.304;6.866;2023-06-14T15:17:24;27.60;57.50
25128;DHT22;13107;51.304;6.866;2023-06-14T15:21:26;27.10;58.40
25128;DHT22;13107;51.304;6.866;2023-06-14T15:25:29;26.30;60.50
25128;DHT22;13107;51.304;6.866;2023-06-14T15:29:31;26.10;60.40
25128;DHT22;13107;51.304;6.866;2023-06-14T15:33:33;25.40;63.00
25128;DHT22;13107;51.304;6.866;2023-06-14T15:37:35;25.10;62.30
25128;DHT22;13107;51.304;6.866;2023-06-14T15:41:36;25.00;64.00
25128;DHT22;13107;51.304;6.866;2023-06-14T15:45:38;24.30;64.50
25128;DHT22;13107;51.304;6.866;2023-06-14T15:49:40;24.30;66.00
25128;DHT22;13107;51.304;6.866;2023-06-14T15:53:42;24.50;65.20
25128;DHT22;13107;51.304;6.866;2023-06-14T15:57:44;23.90;64.60
25128;DHT22;13107;51.304;6.866;2023-06-14T16:01:46;23.80;64.50
25128;DHT22;13107;51.304;6.866;2023-06-14T16:05:50;23.60;66.50
25128;DHT22;13107;51.304;6.866;2023-06-14T16:09:52;23.60;67.00
25128;DHT22;13107;51.304;6.866;2023-06-14T16:13:53;23.70;67.70
25128;DHT22;13107;51.304;6.866;2023-06-14T16:17:57;23.60;66.20
25128;DHT22;13107;51.304;6.866;2023-06-14T16:21:59;23.50;66.00
25128;DHT22;13107;51.304;6.866;2023-06-14T16:26:01;23.60;67.90
25128;DHT22;13107;51.304;6.866;2023-06-14T16:30:03;23.50;66.70
25128;DHT22;13107;51.304;6.866;2023-06-14T16:34:05;23.50;67.40
25128;DHT22;13107;51.304;6.866;2023-06-14T16:38:13;23.50;67.70
25128;DHT22;13107;51.304;6.866;2023-06-14T16:42:15;23.60;67.70
25128;DHT22;13107;51.304;6.866;2023-06-14T16:46:28;23.50;68.20
25128;DHT22;13107;51.304;6.866;2023-06-14T16:50:31;23.50;67.60
25128;DHT22;13107;51.304;6.866;2023-06-14T16:54:37;23.40;67.60
25128;DHT22;13107;51.304;6.866;2023-06-14T16:58:39;23.30;66.00
25128;DHT22;13107;51.304;6.866;2023-06-14T17:02:41;23.30;66.10
25128;DHT22;13107;51.304;6.866;2023-06-14T17:06:44;23.30;66.30
25128;DHT22;13107;51.304;6.866;2023-06-14T17:10:46;23.20;65.80
25128;DHT22;13107;51.304;6.866;2023-06-14T17:14:48;23.30;65.80
25128;DHT22;13107;51.304;6.866;2023-06-14T17:18:53;23.00;65.50
25128;DHT22;13107;51.304;6.866;2023-06-14T17:22:55;23.10;67.00
25128;DHT22;13107;51.304;6.866;2023-06-14T17:26:58;23.10;65.90
25128;DHT22;13107;51.304;6.866;2023-06-14T17:31:00;23.00;66.70
25128;DHT22;13107;51.304;6.866;2023-06-14T17:35:02;23.00;67.10
25128;DHT22;13107;51.304;6.866;2023-06-14T17:39:05;23.00;66.80
25128;DHT22;13107;51.304;6.866;2023-06-14T17:43:07;23.00;65.80
25128;DHT22;13107;51.304;6.866;2023-06-14T17:47:09;23.00;66.50
25128;DHT22;13107;51.304;6.866;2023-06-14T17:51:18;22.90;66.30
25128;DHT22;13107;51.304;6.866;2023-06-14T17:55:22;22.90;66.90
25128;DHT22;13107;51.304;6.866;2023-06-14T17:59:24;22.80;67.30
25128;DHT22;13107;51.304;6.866;2023-06-14T18:03:26;22.80;67.60
25128;DHT22;13107;51.304;6.866;2023-06-14T18:07:28;22.70;67.20
25128;DHT22;13107;51.304;6.866;2023-06-14T18:11:30;22.60;67.50
25128;DHT22;13107;51.304;6.866;2023-06-14T18:15:34;22.50;68.30
25128;DHT22;13107;51.304;6.866;2023-06-14T18:19:36;22.50;69.30
25128;DHT22;13107;51.304;6.866;2023-06-14T18:23:39;22.50;68.50
25128;DHT22;13107;51.304;6.866;2023-06-14T18:27:41;22.30;69.60
25128;DHT22;13107;51.304;6.866;2023-06-14T18:31:43;22.30;69.90
25128;DHT22;13107;51.304;6.866;2023-06-14T18:35:45;22.20;71.20
25128;DHT22;13107;51.304;6.866;2023-06-14T18:39:47;22.20;71.70
25128;DHT22;13107;51.304;6.866;2023-06-14T18:43:49;22.00;72.00
25128;DHT22;13107;51.304;6.866;2023-06-14T18:47:51;21.90;74.20
25128;DHT22;13107;51.304;6.866;2023-06-14T18:51:53;21.90;72.70
25128;DHT22;13107;51.304;6.866;2023-06-14T18:55:55;21.80;73.00
25128;DHT22;13107;51.304;6.866;2023-06-14T19:00:03;21.70;73.40
25128;DHT22;13107;51.304;6.866;2023-06-14T19:04:06;21.60;74.40
25128;DHT22;13107;51.304;6.866;2023-06-14T19:08:08;21.50;74.90
25128;DHT22;13107;51.304;6.866;2023-06-14T19:12:11;21.30;75.60
25128;DHT22;13107;51.304;6.866;2023-06-14T19:16:13;21.20;76.60
25128;DHT22;13107;51.304;6.866;2023-06-14T19:20:15;21.20;77.00
25128;DHT22;13107;51.304;6.866;2023-06-14T19:24:18;21.10;78.10
25128;DHT22;13107;51.304;6.866;2023-06-14T19:28:20;20.90;79.00
25128;DHT22;13107;51.304;6.866;2023-06-14T19:32:27;20.90;79.60
25128;DHT22;13107;51.304;6.866;2023-06-14T19:36:29;20.70;80.60
25128;DHT22;13107;51.304;6.866;2023-06-14T19:40:31;20.70;80.30
25128;DHT22;13107;51.304;6.866;2023-06-14T19:44:33;20.50;81.20
25128;DHT22;13107;51.304;6.866;2023-06-14T19:48:35;20.50;82.00
25128;DHT22;13107;51.304;6.866;2023-06-14T19:52:37;20.40;82.40
25128;DHT22;13107;51.304;6.866;2023-06-14T19:56:39;20.20;83.90
25128;DHT22;13107;51.304;6.866;2023-06-14T20:00:42;20.10;86.00
25128;DHT22;13107;51.304;6.866;2023-06-14T20:04:44;20.00;86.60
25128;DHT22;13107;51.304;6.866;2023-06-14T20:08:46;19.80;87.90
25128;DHT22;13107;51.304;6.866;2023-06-14T20:12:48;19.80;88.10
25128;DHT22;13107;51.304;6.866;2023-06-14T20:16:51;19.60;90.30
25128;DHT22;13107;51.304;6.866;2023-06-14T20:20:53;19.60;90.50
25128;DHT22;13107;51.304;6.866;2023-06-14T20:24:56;19.50;92.50
25128;DHT22;13107;51.304;6.866;2023-06-14T20:28:58;19.40;93.70
25128;DHT22;13107;51.304;6.866;2023-06-14T20:33:00;19.20;95.00
25128;DHT22;13107;51.304;6.866;2023-06-14T20:37:02;19.00;95.90
25128;DHT22;13107;51.304;6.866;2023-06-14T20:41:04;18.80;96.50
25128;DHT22;13107;51.304;6.866;2023-06-14T20:45:07;18.70;98.60
25128;DHT22;13107;51.304;6.866;2023-06-14T20:49:09;18.50;99.80
25128;DHT22;13107;51.304;6.866;2023-06-14T20:53:11;18.40;99.90
25128;DHT22;13107;51.304;6.866;2023-06-14T20:57:13;18.20;99.90
25128;DHT22;13107;51.304;6.866;2023-06-14T21:01:19;18.20;99.90
25128;DHT22;13107;51.304;6.866;2023-06-14T21:05:34;18.00;99.90
25128;DHT22;13107;51.304;6.866;2023-06-14T21:09:36;18.00;99.90
25128;DHT22;13107;51.304;6.866;2023-06-14T21:13:38;17.90;99.90
25128;DHT22;13107;51.304;6.866;2023-06-14T21:17:40;17.80;99.90
25128;DHT22;13107;51.304;6.866;2023-06-14T21:21:42;17.70;99.90
25128;DHT22;13107;51.304;6.866;2023-06-14T21:25:44;17.50;99.90
25128;DHT22;13107;51.304;6.866;2023-06-14T21:29:46;17.20;99.90
25128;DHT22;13107;51.304;6.866;2023-06-14T21:33:51;17.00;99.90
25128;DHT22;13107;51.304;6.866;2023-06-14T21:37:54;16.70;99.90
25128;DHT22;13107;51.304;6.866;2023-06-14T21:41:56;16.60;99.90
25128;DHT22;13107;51.304;6.866;2023-06-14T21:45:57;16.40;99.90
25128;DHT22;13107;51.304;6.866;2023-06-14T21:49:59;16.20;99.90
25128;DHT22;13107;51.304;6.866;2023-06-14T21:54:01;16.20;99.90
25128;DHT22;13107;51.304;6.866;2023-06-14T21:58:03;16.00;99.90
25128;DHT22;13107;51.304;6.866;2023-06-14T22:02:06;15.90;99.90
25128;DHT22;13107;51.304;6.866;2023-06-14T22:06:07;15.80;99.90
25128;DHT22;13107;51.304;6.866;2023-06-14T22:10:10;15.60;99.90
25128;DHT22;13107;51.304;6.866;2023-06-14T22:14:12;15.60;99.90
25128;DHT22;13107;51.304;6.866;2023-06-14T22:18:14;15.50;99.90
25128;DHT22;13107;51.304;6.866;2023-06-14T22:22:19;15.40;99.90
25128;DHT22;13107;51.304;6.866;2023-06-14T22:26:29;15.30;99.90
25128;DHT22;13107;51.304;6.866;2023-06-14T22:30:41;15.20;99.90
25128;DHT22;13107;51.304;6.866;2023-06-14T22:34:46;15.10;99.90
25128;DHT22;13107;51.304;6.866;2023-06-14T22:38:48;15.00;99.90
25128;DHT22;13107;51.304;6.866;2023-06-14T22:42:50;14.90;99.90
25128;DHT22;13107;51.304;6.866;2023-06-14T22:46:55;14.80;99.90
25128;DHT22;13107;51.304;6.866;2023-06-14T22:50:58;14.80;99.90
25128;DHT22;13107;51.304;6.866;2023-06-14T22:55:02;14.70;99.90
25128;DHT22;13107;51.304;6.866;2023-06-14T22:59:05;14.60;99.90
25128;DHT22;13107;51.304;6.866;2023-06-14T23:03:07;14.60;99.90
25128;DHT22;13107;51.304;6.866;2023-06-14T23:07:09;14.50;99.90
25128;DHT22;13107;51.304;6.866;2023-06-14T23:11:12;14.50;99.90
25128;DHT22;13107;51.304;6.866;2023-06-14T23:15:18;14.50;99.90
25128;DHT22;13107;51.304;6.866;2023-06-14T23:19:21;14.50;99.90
25128;DHT22;13107;51.304;6.866;2023-06-14T23:23:24;14.40;99.90
25128;DHT22;13107;51.304;6.866;2023-06-14T23:27:28;14.30;99.90
25128;DHT22;13107;51.304;6.866;2023-06-14T23:31:31;14.20;99.90
25128;DHT22;13107;51.304;6.866;2023-06-14T23:35:35;14.20;99.90
25128;DHT22;13107;51.304;6.866;2023-06-14T23:39:37;14.20;99.90
25128;DHT22;13107;51.304;6.866;2023-06-14T23:43:50;14.20;99.90
25128;DHT22;13107;51.304;6.866;2023-06-14T23:47:53;14.10;99.90
25128;DHT22;13107;51.304;6.866;2023-06-14T23:51:55;14.10;99.90
25128;DHT22;13107;51.304;6.866;2023-06-14T23:55:59;14.10;99.90
